sensor_id;sensor_type;location;lat;lon;timestamp;P1;durP1;ratioP1;P2;durP2;ratioP2
7432;SDS011;32233;49.500;7.764;2023-02-12T00:01:16;33.70;;;21.47;;
7432;SDS011;32233;49.500;7.764;2023-02-12T00:03:43;35.63;;;21.93;;
7432;SDS011;32233;49.500;7.764;2023-02-12T00:06:10;34.07;;;20.00;;
7432;SDS011;32233;49.500;7.764;2023-02-12T00:08:40;32.23;;;20.23;;
7432;SDS011;32233;49.500;7.764;2023-02-12T00:11:09;32.97;;;19.90;;
7432;SDS011;32233;49.500;7.764;2023-02-12T00:13:41;36.60;;;21.23;;
7432;SDS011;32233;49.500;7.764;2023-02-12T00:16:09;36.77;;;21.20;;
7432;SDS011;32233;49.500;7.764;2023-02-12T00:18:37;36.80;;;20.80;;
7432;SDS011;32233;49.500;7.764;2023-02-12T00:21:04;33.20;;;20.27;;
7432;SDS011;32233;49.500;7.764;2023-02-12T00:23:34;32.13;;;19.40;;
7432;SDS011;32233;49.500;7.764;2023-02-12T00:26:05;31.43;;;19.73;;
7432;SDS011;32233;49.500;7.764;2023-02-12T00:28:32;29.97;;;18.80;;
7432;SDS011;32233;49.500;7.764;2023-02-12T00:33:34;31.57;;;18.77;;
7432;SDS011;32233;49.500;7.764;2023-02-12T00:36:01;33.33;;;18.93;;
7432;SDS011;32233;49.500;7.764;2023-02-12T00:38:28;31.00;;;19.13;;
7432;SDS011;32233;49.500;7.764;2023-02-12T00:40:54;33.73;;;18.97;;
7432;SDS011;32233;49.500;7.764;2023-02-12T00:43:21;33.43;;;20.07;;
7432;SDS011;32233;49.500;7.764;2023-02-12T00:45:48;30.97;;;18.47;;
7432;SDS011;32233;49.500;7.764;2023-02-12T00:48:16;31.87;;;19.57;;
7432;SDS011;32233;49.500;7.764;2023-02-12T00:50:44;32.20;;;19.53;;
7432;SDS011;32233;49.500;7.764;2023-02-12T00:53:11;32.90;;;20.17;;
7432;SDS011;32233;49.500;7.764;2023-02-12T00:55:39;33.33;;;19.33;;
7432;SDS011;32233;49.500;7.764;2023-02-12T00:58:05;34.67;;;20.23;;
7432;SDS011;32233;49.500;7.764;2023-02-12T01:00:33;37.70;;;20.53;;
7432;SDS011;32233;49.500;7.764;2023-02-12T01:03:00;33.53;;;20.93;;
7432;SDS011;32233;49.500;7.764;2023-02-12T01:05:26;32.43;;;19.80;;
7432;SDS011;32233;49.500;7.764;2023-02-12T01:07:53;31.90;;;19.13;;
7432;SDS011;32233;49.500;7.764;2023-02-12T01:10:19;34.00;;;19.70;;
7432;SDS011;32233;49.500;7.764;2023-02-12T01:12:46;32.83;;;19.67;;
7432;SDS011;32233;49.500;7.764;2023-02-12T01:15:14;32.47;;;18.87;;
7432;SDS011;32233;49.500;7.764;2023-02-12T01:17:41;30.77;;;18.90;;
7432;SDS011;32233;49.500;7.764;2023-02-12T01:20:10;31.30;;;17.97;;
7432;SDS011;32233;49.500;7.764;2023-02-12T01:22:39;28.13;;;17.43;;
7432;SDS011;32233;49.500;7.764;2023-02-12T01:25:05;31.27;;;17.93;;
7432;SDS011;32233;49.500;7.764;2023-02-12T01:27:32;27.07;;;17.33;;
7432;SDS011;32233;49.500;7.764;2023-02-12T01:29:59;30.37;;;17.90;;
7432;SDS011;32233;49.500;7.764;2023-02-12T01:32:26;27.13;;;16.40;;
7432;SDS011;32233;49.500;7.764;2023-02-12T01:34:52;25.10;;;15.93;;
7432;SDS011;32233;49.500;7.764;2023-02-12T01:37:20;24.73;;;16.27;;
7432;SDS011;32233;49.500;7.764;2023-02-12T01:39:46;28.00;;;16.67;;
7432;SDS011;32233;49.500;7.764;2023-02-12T01:42:14;29.00;;;18.27;;
7432;SDS011;32233;49.500;7.764;2023-02-12T01:44:45;30.07;;;18.23;;
7432;SDS011;32233;49.500;7.764;2023-02-12T01:47:43;32.93;;;18.20;;
7432;SDS011;32233;49.500;7.764;2023-02-12T01:50:12;29.63;;;17.67;;
7432;SDS011;32233;49.500;7.764;2023-02-12T01:52:43;30.03;;;18.63;;
7432;SDS011;32233;49.500;7.764;2023-02-12T01:55:15;31.23;;;19.30;;
7432;SDS011;32233;49.500;7.764;2023-02-12T01:57:42;36.57;;;20.67;;
7432;SDS011;32233;49.500;7.764;2023-02-12T02:00:17;32.47;;;18.73;;
7432;SDS011;32233;49.500;7.764;2023-02-12T02:02:50;29.73;;;18.03;;
7432;SDS011;32233;49.500;7.764;2023-02-12T02:05:25;29.97;;;18.00;;
7432;SDS011;32233;49.500;7.764;2023-02-12T02:08:13;30.73;;;18.20;;
7432;SDS011;32233;49.500;7.764;2023-02-12T02:10:40;25.97;;;17.17;;
7432;SDS011;32233;49.500;7.764;2023-02-12T02:13:06;27.00;;;16.77;;
7432;SDS011;32233;49.500;7.764;2023-02-12T02:15:53;29.33;;;17.57;;
7432;SDS011;32233;49.500;7.764;2023-02-12T02:18:33;27.13;;;16.33;;
7432;SDS011;32233;49.500;7.764;2023-02-12T02:27:07;25.37;;;15.60;;
7432;SDS011;32233;49.500;7.764;2023-02-12T02:30:01;31.97;;;16.83;;
7432;SDS011;32233;49.500;7.764;2023-02-12T02:32:28;29.10;;;17.87;;
7432;SDS011;32233;49.500;7.764;2023-02-12T02:37:44;28.30;;;17.07;;
7432;SDS011;32233;49.500;7.764;2023-02-12T02:40:17;30.97;;;17.57;;
7432;SDS011;32233;49.500;7.764;2023-02-12T02:45:30;24.47;;;15.90;;
7432;SDS011;32233;49.500;7.764;2023-02-12T02:51:03;26.93;;;15.50;;
7432;SDS011;32233;49.500;7.764;2023-02-12T02:53:38;23.93;;;15.87;;
7432;SDS011;32233;49.500;7.764;2023-02-12T02:56:12;26.13;;;15.73;;
7432;SDS011;32233;49.500;7.764;2023-02-12T02:58:43;23.77;;;15.97;;
7432;SDS011;32233;49.500;7.764;2023-02-12T03:01:23;22.80;;;14.93;;
7432;SDS011;32233;49.500;7.764;2023-02-12T03:04:06;25.90;;;15.97;;
7432;SDS011;32233;49.500;7.764;2023-02-12T03:06:40;23.43;;;15.00;;
7432;SDS011;32233;49.500;7.764;2023-02-12T03:09:20;24.13;;;15.10;;
7432;SDS011;32233;49.500;7.764;2023-02-12T03:11:51;26.50;;;15.10;;
7432;SDS011;32233;49.500;7.764;2023-02-12T03:14:33;21.90;;;14.20;;
7432;SDS011;32233;49.500;7.764;2023-02-12T03:17:06;24.30;;;15.30;;
7432;SDS011;32233;49.500;7.764;2023-02-12T03:19:46;24.53;;;14.90;;
7432;SDS011;32233;49.500;7.764;2023-02-12T03:22:20;22.00;;;13.53;;
7432;SDS011;32233;49.500;7.764;2023-02-12T03:25:08;22.90;;;13.90;;
7432;SDS011;32233;49.500;7.764;2023-02-12T03:27:41;20.97;;;13.83;;
7432;SDS011;32233;49.500;7.764;2023-02-12T03:30:12;22.90;;;13.00;;
7432;SDS011;32233;49.500;7.764;2023-02-12T03:32:43;23.67;;;14.40;;
7432;SDS011;32233;49.500;7.764;2023-02-12T03:35:21;25.17;;;14.43;;
7432;SDS011;32233;49.500;7.764;2023-02-12T03:40:36;23.63;;;14.53;;
7432;SDS011;32233;49.500;7.764;2023-02-12T03:43:09;20.93;;;13.30;;
7432;SDS011;32233;49.500;7.764;2023-02-12T03:48:18;21.87;;;14.13;;
7432;SDS011;32233;49.500;7.764;2023-02-12T03:50:51;25.13;;;14.47;;
7432;SDS011;32233;49.500;7.764;2023-02-12T03:53:24;25.03;;;15.10;;
7432;SDS011;32233;49.500;7.764;2023-02-12T03:55:53;24.53;;;15.07;;
7432;SDS011;32233;49.500;7.764;2023-02-12T03:58:25;24.10;;;14.43;;
7432;SDS011;32233;49.500;7.764;2023-02-12T04:00:54;22.30;;;14.27;;
7432;SDS011;32233;49.500;7.764;2023-02-12T04:03:22;25.67;;;14.50;;
7432;SDS011;32233;49.500;7.764;2023-02-12T04:05:49;27.20;;;15.30;;
7432;SDS011;32233;49.500;7.764;2023-02-12T04:08:16;24.13;;;14.70;;
7432;SDS011;32233;49.500;7.764;2023-02-12T04:16:28;27.37;;;16.20;;
7432;SDS011;32233;49.500;7.764;2023-02-12T04:19:19;27.60;;;16.83;;
7432;SDS011;32233;49.500;7.764;2023-02-12T04:22:02;25.20;;;15.57;;
7432;SDS011;32233;49.500;7.764;2023-02-12T04:24:48;26.03;;;15.77;;
7432;SDS011;32233;49.500;7.764;2023-02-12T04:27:27;23.23;;;15.57;;
7432;SDS011;32233;49.500;7.764;2023-02-12T04:30:10;26.43;;;15.50;;
7432;SDS011;32233;49.500;7.764;2023-02-12T04:32:47;24.37;;;15.10;;
7432;SDS011;32233;49.500;7.764;2023-02-12T04:35:19;27.53;;;15.63;;
7432;SDS011;32233;49.500;7.764;2023-02-12T04:40:24;24.43;;;15.60;;
7432;SDS011;32233;49.500;7.764;2023-02-12T04:42:51;24.50;;;15.27;;
7432;SDS011;32233;49.500;7.764;2023-02-12T04:45:23;23.13;;;14.90;;
7432;SDS011;32233;49.500;7.764;2023-02-12T04:47:53;25.57;;;14.80;;
7432;SDS011;32233;49.500;7.764;2023-02-12T04:50:19;25.00;;;15.43;;
7432;SDS011;32233;49.500;7.764;2023-02-12T04:52:46;23.97;;;14.40;;
7432;SDS011;32233;49.500;7.764;2023-02-12T04:55:13;25.30;;;15.03;;
7432;SDS011;32233;49.500;7.764;2023-02-12T04:57:40;25.27;;;15.10;;
7432;SDS011;32233;49.500;7.764;2023-02-12T05:00:08;24.27;;;14.53;;
7432;SDS011;32233;49.500;7.764;2023-02-12T05:02:37;23.77;;;14.33;;
7432;SDS011;32233;49.500;7.764;2023-02-12T05:05:04;26.67;;;15.33;;
7432;SDS011;32233;49.500;7.764;2023-02-12T05:07:32;23.67;;;14.80;;
7432;SDS011;32233;49.500;7.764;2023-02-12T05:09:58;23.27;;;14.40;;
7432;SDS011;32233;49.500;7.764;2023-02-12T05:12:25;24.53;;;15.13;;
7432;SDS011;32233;49.500;7.764;2023-02-12T05:14:52;24.77;;;15.07;;
7432;SDS011;32233;49.500;7.764;2023-02-12T05:17:20;24.17;;;14.83;;
7432;SDS011;32233;49.500;7.764;2023-02-12T05:19:48;30.07;;;17.23;;
7432;SDS011;32233;49.500;7.764;2023-02-12T05:22:16;28.03;;;16.97;;
7432;SDS011;32233;49.500;7.764;2023-02-12T05:24:43;26.07;;;16.43;;
7432;SDS011;32233;49.500;7.764;2023-02-12T05:27:10;27.07;;;16.57;;
7432;SDS011;32233;49.500;7.764;2023-02-12T05:29:37;25.87;;;16.40;;
7432;SDS011;32233;49.500;7.764;2023-02-12T05:32:03;23.40;;;16.00;;
7432;SDS011;32233;49.500;7.764;2023-02-12T05:34:32;26.30;;;15.83;;
7432;SDS011;32233;49.500;7.764;2023-02-12T05:36:59;25.97;;;15.87;;
7432;SDS011;32233;49.500;7.764;2023-02-12T05:39:26;24.70;;;14.60;;
7432;SDS011;32233;49.500;7.764;2023-02-12T05:41:53;21.87;;;14.00;;
7432;SDS011;32233;49.500;7.764;2023-02-12T05:44:19;25.07;;;14.87;;
7432;SDS011;32233;49.500;7.764;2023-02-12T05:46:46;22.93;;;14.90;;
7432;SDS011;32233;49.500;7.764;2023-02-12T05:49:12;23.87;;;14.00;;
7432;SDS011;32233;49.500;7.764;2023-02-12T05:51:39;21.37;;;14.13;;
7432;SDS011;32233;49.500;7.764;2023-02-12T05:54:06;21.27;;;13.63;;
7432;SDS011;32233;49.500;7.764;2023-02-12T05:56:34;23.10;;;14.60;;
7432;SDS011;32233;49.500;7.764;2023-02-12T05:59:03;25.23;;;15.43;;
7432;SDS011;32233;49.500;7.764;2023-02-12T06:01:38;23.87;;;14.10;;
7432;SDS011;32233;49.500;7.764;2023-02-12T06:04:09;26.23;;;15.57;;
7432;SDS011;32233;49.500;7.764;2023-02-12T06:06:38;22.50;;;14.90;;
7432;SDS011;32233;49.500;7.764;2023-02-12T06:09:08;25.13;;;16.00;;
7432;SDS011;32233;49.500;7.764;2023-02-12T06:11:36;20.87;;;13.93;;
7432;SDS011;32233;49.500;7.764;2023-02-12T06:14:04;23.20;;;14.17;;
7432;SDS011;32233;49.500;7.764;2023-02-12T06:16:32;23.50;;;14.80;;
7432;SDS011;32233;49.500;7.764;2023-02-12T06:19:01;24.63;;;15.07;;
7432;SDS011;32233;49.500;7.764;2023-02-12T06:21:29;24.17;;;14.00;;
7432;SDS011;32233;49.500;7.764;2023-02-12T06:23:57;21.60;;;14.37;;
7432;SDS011;32233;49.500;7.764;2023-02-12T06:26:24;20.67;;;13.80;;
7432;SDS011;32233;49.500;7.764;2023-02-12T06:28:51;22.30;;;13.67;;
7432;SDS011;32233;49.500;7.764;2023-02-12T06:31:26;23.97;;;15.23;;
7432;SDS011;32233;49.500;7.764;2023-02-12T06:33:55;22.97;;;14.93;;
7432;SDS011;32233;49.500;7.764;2023-02-12T06:36:23;24.17;;;14.60;;
7432;SDS011;32233;49.500;7.764;2023-02-12T06:38:50;25.93;;;14.87;;
7432;SDS011;32233;49.500;7.764;2023-02-12T06:41:17;23.80;;;15.57;;
7432;SDS011;32233;49.500;7.764;2023-02-12T06:43:44;24.53;;;14.93;;
7432;SDS011;32233;49.500;7.764;2023-02-12T06:46:11;22.57;;;14.37;;
7432;SDS011;32233;49.500;7.764;2023-02-12T06:48:38;26.30;;;16.03;;
7432;SDS011;32233;49.500;7.764;2023-02-12T06:51:09;25.40;;;15.60;;
7432;SDS011;32233;49.500;7.764;2023-02-12T06:53:37;25.27;;;15.40;;
7432;SDS011;32233;49.500;7.764;2023-02-12T06:56:05;26.70;;;16.27;;
7432;SDS011;32233;49.500;7.764;2023-02-12T06:58:36;24.70;;;15.50;;
7432;SDS011;32233;49.500;7.764;2023-02-12T07:01:15;24.60;;;15.17;;
7432;SDS011;32233;49.500;7.764;2023-02-12T07:03:46;22.20;;;14.63;;
7432;SDS011;32233;49.500;7.764;2023-02-12T07:06:15;24.53;;;15.67;;
7432;SDS011;32233;49.500;7.764;2023-02-12T07:08:42;25.17;;;15.00;;
7432;SDS011;32233;49.500;7.764;2023-02-12T07:11:09;25.63;;;15.70;;
7432;SDS011;32233;49.500;7.764;2023-02-12T07:13:36;23.30;;;14.30;;
7432;SDS011;32233;49.500;7.764;2023-02-12T07:16:08;25.13;;;15.07;;
7432;SDS011;32233;49.500;7.764;2023-02-12T07:18:37;26.57;;;16.00;;
7432;SDS011;32233;49.500;7.764;2023-02-12T07:21:05;22.70;;;14.73;;
7432;SDS011;32233;49.500;7.764;2023-02-12T07:23:33;24.47;;;14.67;;
7432;SDS011;32233;49.500;7.764;2023-02-12T07:26:01;21.63;;;14.47;;
7432;SDS011;32233;49.500;7.764;2023-02-12T07:28:29;24.00;;;14.43;;
7432;SDS011;32233;49.500;7.764;2023-02-12T07:31:13;21.67;;;14.37;;
7432;SDS011;32233;49.500;7.764;2023-02-12T07:33:40;22.40;;;14.57;;
7432;SDS011;32233;49.500;7.764;2023-02-12T07:36:10;23.97;;;14.37;;
7432;SDS011;32233;49.500;7.764;2023-02-12T07:38:38;22.27;;;14.03;;
7432;SDS011;32233;49.500;7.764;2023-02-12T07:41:12;22.17;;;14.77;;
7432;SDS011;32233;49.500;7.764;2023-02-12T07:43:44;26.73;;;15.57;;
7432;SDS011;32233;49.500;7.764;2023-02-12T07:48:44;28.77;;;16.70;;
7432;SDS011;32233;49.500;7.764;2023-02-12T07:51:14;30.17;;;18.83;;
7432;SDS011;32233;49.500;7.764;2023-02-12T07:53:44;31.20;;;18.53;;
7432;SDS011;32233;49.500;7.764;2023-02-12T07:56:11;29.53;;;17.13;;
7432;SDS011;32233;49.500;7.764;2023-02-12T07:58:46;26.13;;;16.20;;
7432;SDS011;32233;49.500;7.764;2023-02-12T08:01:16;29.73;;;17.50;;
7432;SDS011;32233;49.500;7.764;2023-02-12T08:03:43;27.50;;;17.27;;
7432;SDS011;32233;49.500;7.764;2023-02-12T08:06:11;30.43;;;17.43;;
7432;SDS011;32233;49.500;7.764;2023-02-12T08:08:43;31.90;;;17.53;;
7432;SDS011;32233;49.500;7.764;2023-02-12T08:11:10;31.33;;;18.23;;
7432;SDS011;32233;49.500;7.764;2023-02-12T08:13:38;29.33;;;18.60;;
7432;SDS011;32233;49.500;7.764;2023-02-12T08:16:06;34.73;;;19.43;;
7432;SDS011;32233;49.500;7.764;2023-02-12T08:18:34;37.27;;;20.47;;
7432;SDS011;32233;49.500;7.764;2023-02-12T08:21:05;32.90;;;19.93;;
7432;SDS011;32233;49.500;7.764;2023-02-12T08:23:33;34.00;;;19.10;;
7432;SDS011;32233;49.500;7.764;2023-02-12T08:26:04;31.13;;;19.13;;
7432;SDS011;32233;49.500;7.764;2023-02-12T08:28:34;35.70;;;20.17;;
7432;SDS011;32233;49.500;7.764;2023-02-12T08:31:04;39.77;;;21.43;;
7432;SDS011;32233;49.500;7.764;2023-02-12T08:33:32;39.63;;;23.10;;
7432;SDS011;32233;49.500;7.764;2023-02-12T08:36:00;40.37;;;22.93;;
7432;SDS011;32233;49.500;7.764;2023-02-12T08:38:29;42.27;;;23.63;;
7432;SDS011;32233;49.500;7.764;2023-02-12T08:41:04;39.97;;;22.13;;
7432;SDS011;32233;49.500;7.764;2023-02-12T08:43:33;38.27;;;21.73;;
7432;SDS011;32233;49.500;7.764;2023-02-12T08:46:01;42.27;;;22.80;;
7432;SDS011;32233;49.500;7.764;2023-02-12T08:48:29;50.40;;;25.77;;
7432;SDS011;32233;49.500;7.764;2023-02-12T08:51:02;57.97;;;28.27;;
7432;SDS011;32233;49.500;7.764;2023-02-12T08:53:35;53.63;;;27.07;;
7432;SDS011;32233;49.500;7.764;2023-02-12T08:56:03;53.07;;;26.87;;
7432;SDS011;32233;49.500;7.764;2023-02-12T08:58:30;53.53;;;27.13;;
7432;SDS011;32233;49.500;7.764;2023-02-12T09:00:57;59.30;;;27.30;;
7432;SDS011;32233;49.500;7.764;2023-02-12T09:03:24;54.37;;;26.63;;
7432;SDS011;32233;49.500;7.764;2023-02-12T09:05:51;53.57;;;26.87;;
7432;SDS011;32233;49.500;7.764;2023-02-12T09:08:18;57.77;;;28.33;;
7432;SDS011;32233;49.500;7.764;2023-02-12T09:10:45;53.97;;;28.20;;
7432;SDS011;32233;49.500;7.764;2023-02-12T09:13:13;52.87;;;26.93;;
7432;SDS011;32233;49.500;7.764;2023-02-12T09:15:41;61.47;;;28.73;;
7432;SDS011;32233;49.500;7.764;2023-02-12T09:18:10;56.40;;;27.17;;
7432;SDS011;32233;49.500;7.764;2023-02-12T09:20:39;59.73;;;27.83;;
7432;SDS011;32233;49.500;7.764;2023-02-12T09:23:08;55.90;;;27.67;;
7432;SDS011;32233;49.500;7.764;2023-02-12T09:25:40;54.07;;;26.77;;
7432;SDS011;32233;49.500;7.764;2023-02-12T09:28:08;56.17;;;26.90;;
7432;SDS011;32233;49.500;7.764;2023-02-12T09:30:36;56.70;;;27.93;;
7432;SDS011;32233;49.500;7.764;2023-02-12T09:33:04;54.03;;;27.50;;
7432;SDS011;32233;49.500;7.764;2023-02-12T09:35:35;53.23;;;27.57;;
7432;SDS011;32233;49.500;7.764;2023-02-12T09:38:03;50.73;;;26.60;;
7432;SDS011;32233;49.500;7.764;2023-02-12T09:43:05;54.67;;;25.67;;
7432;SDS011;32233;49.500;7.764;2023-02-12T09:45:56;53.67;;;27.10;;
7432;SDS011;32233;49.500;7.764;2023-02-12T09:51:09;49.33;;;25.83;;
7432;SDS011;32233;49.500;7.764;2023-02-12T09:53:38;55.43;;;27.07;;
7432;SDS011;32233;49.500;7.764;2023-02-12T09:56:11;55.27;;;27.10;;
7432;SDS011;32233;49.500;7.764;2023-02-12T09:58:45;59.03;;;29.07;;
7432;SDS011;32233;49.500;7.764;2023-02-12T10:01:17;61.73;;;30.13;;
7432;SDS011;32233;49.500;7.764;2023-02-12T10:03:46;54.13;;;27.73;;
7432;SDS011;32233;49.500;7.764;2023-02-12T10:06:15;55.33;;;27.87;;
7432;SDS011;32233;49.500;7.764;2023-02-12T10:28:07;54.33;;;26.50;;
7432;SDS011;32233;49.500;7.764;2023-02-12T10:30:44;56.33;;;27.67;;
7432;SDS011;32233;49.500;7.764;2023-02-12T10:33:20;55.83;;;28.13;;
7432;SDS011;32233;49.500;7.764;2023-02-12T10:35:55;51.00;;;25.20;;
7432;SDS011;32233;49.500;7.764;2023-02-12T10:38:29;50.30;;;24.87;;
7432;SDS011;32233;49.500;7.764;2023-02-12T10:41:01;49.57;;;24.13;;
7432;SDS011;32233;49.500;7.764;2023-02-12T10:43:28;46.10;;;23.23;;
7432;SDS011;32233;49.500;7.764;2023-02-12T10:45:58;50.83;;;24.17;;
7432;SDS011;32233;49.500;7.764;2023-02-12T10:48:29;45.47;;;23.00;;
7432;SDS011;32233;49.500;7.764;2023-02-12T10:53:37;40.00;;;21.27;;
7432;SDS011;32233;49.500;7.764;2023-02-12T11:01:48;36.33;;;18.83;;
7432;SDS011;32233;49.500;7.764;2023-02-12T11:04:28;36.47;;;19.90;;
7432;SDS011;32233;49.500;7.764;2023-02-12T11:06:59;34.30;;;18.77;;
7432;SDS011;32233;49.500;7.764;2023-02-12T11:09:26;31.63;;;17.40;;
7432;SDS011;32233;49.500;7.764;2023-02-12T11:11:56;34.33;;;18.30;;
7432;SDS011;32233;49.500;7.764;2023-02-12T11:14:23;32.27;;;17.07;;
7432;SDS011;32233;49.500;7.764;2023-02-12T11:16:54;30.60;;;16.87;;
7432;SDS011;32233;49.500;7.764;2023-02-12T11:19:24;31.27;;;17.27;;
7432;SDS011;32233;49.500;7.764;2023-02-12T11:22:27;31.23;;;17.83;;
7432;SDS011;32233;49.500;7.764;2023-02-12T11:24:47;32.50;;;17.10;;
7432;SDS011;32233;49.500;7.764;2023-02-12T11:27:29;30.57;;;16.60;;
7432;SDS011;32233;49.500;7.764;2023-02-12T11:32:43;30.93;;;17.33;;
7432;SDS011;32233;49.500;7.764;2023-02-12T11:37:39;28.77;;;15.10;;
7432;SDS011;32233;49.500;7.764;2023-02-12T11:40:21;23.50;;;13.17;;
7432;SDS011;32233;49.500;7.764;2023-02-12T11:42:54;26.50;;;14.13;;
7432;SDS011;32233;49.500;7.764;2023-02-12T11:45:30;23.87;;;14.40;;
7432;SDS011;32233;49.500;7.764;2023-02-12T11:48:00;31.20;;;17.20;;
7432;SDS011;32233;49.500;7.764;2023-02-12T11:50:31;31.87;;;17.60;;
7432;SDS011;32233;49.500;7.764;2023-02-12T11:52:59;30.37;;;15.50;;
7432;SDS011;32233;49.500;7.764;2023-02-12T11:55:33;27.70;;;15.77;;
7432;SDS011;32233;49.500;7.764;2023-02-12T12:05:05;28.67;;;14.80;;
7432;SDS011;32233;49.500;7.764;2023-02-12T12:24:25;19.47;;;11.30;;
7432;SDS011;32233;49.500;7.764;2023-02-12T12:27:07;17.90;;;11.63;;
7432;SDS011;32233;49.500;7.764;2023-02-12T12:30:01;17.60;;;10.43;;
7432;SDS011;32233;49.500;7.764;2023-02-12T12:32:32;19.47;;;11.13;;
7432;SDS011;32233;49.500;7.764;2023-02-12T12:35:02;19.97;;;12.10;;
7432;SDS011;32233;49.500;7.764;2023-02-12T12:37:39;18.17;;;12.03;;
7432;SDS011;32233;49.500;7.764;2023-02-12T12:43:17;19.70;;;11.97;;
7432;SDS011;32233;49.500;7.764;2023-02-12T12:49:09;18.03;;;10.67;;
7432;SDS011;32233;49.500;7.764;2023-02-12T13:00:03;15.77;;;10.07;;
7432;SDS011;32233;49.500;7.764;2023-02-12T13:05:40;13.97;;;9.43;;
7432;SDS011;32233;49.500;7.764;2023-02-12T13:11:01;13.87;;;9.57;;
7432;SDS011;32233;49.500;7.764;2023-02-12T13:13:44;16.67;;;10.27;;
7432;SDS011;32233;49.500;7.764;2023-02-12T13:19:17;13.70;;;9.03;;
7432;SDS011;32233;49.500;7.764;2023-02-12T13:22:03;16.60;;;10.47;;
7432;SDS011;32233;49.500;7.764;2023-02-12T13:27:19;11.57;;;8.33;;
7432;SDS011;32233;49.500;7.764;2023-02-12T13:29:51;10.53;;;8.13;;
7432;SDS011;32233;49.500;7.764;2023-02-12T13:35:28;11.63;;;8.03;;
7432;SDS011;32233;49.500;7.764;2023-02-12T13:37:56;12.47;;;8.47;;
7432;SDS011;32233;49.500;7.764;2023-02-12T13:40:25;11.13;;;7.93;;
7432;SDS011;32233;49.500;7.764;2023-02-12T13:42:59;12.07;;;7.23;;
7432;SDS011;32233;49.500;7.764;2023-02-12T13:56:45;11.40;;;7.27;;
7432;SDS011;32233;49.500;7.764;2023-02-12T14:02:00;10.63;;;7.27;;
7432;SDS011;32233;49.500;7.764;2023-02-12T14:04:30;11.63;;;7.83;;
7432;SDS011;32233;49.500;7.764;2023-02-12T14:07:03;11.70;;;7.80;;
7432;SDS011;32233;49.500;7.764;2023-02-12T14:09:38;11.87;;;8.27;;
7432;SDS011;32233;49.500;7.764;2023-02-12T14:12:11;13.57;;;8.57;;
7432;SDS011;32233;49.500;7.764;2023-02-12T14:14:45;13.73;;;8.90;;
7432;SDS011;32233;49.500;7.764;2023-02-12T14:19:54;15.93;;;10.00;;
7432;SDS011;32233;49.500;7.764;2023-02-12T14:27:43;17.60;;;11.83;;
7432;SDS011;32233;49.500;7.764;2023-02-12T14:37:56;21.47;;;13.57;;
7432;SDS011;32233;49.500;7.764;2023-02-12T14:43:02;20.27;;;13.37;;
7432;SDS011;32233;49.500;7.764;2023-02-12T14:45:44;21.40;;;13.63;;
7432;SDS011;32233;49.500;7.764;2023-02-12T14:48:11;21.33;;;13.63;;
7432;SDS011;32233;49.500;7.764;2023-02-12T14:51:08;22.60;;;13.67;;
7432;SDS011;32233;49.500;7.764;2023-02-12T14:53:42;22.87;;;15.10;;
7432;SDS011;32233;49.500;7.764;2023-02-12T14:56:12;25.33;;;15.47;;
7432;SDS011;32233;49.500;7.764;2023-02-12T14:58:38;25.03;;;16.00;;
7432;SDS011;32233;49.500;7.764;2023-02-12T15:01:06;23.80;;;15.80;;
7432;SDS011;32233;49.500;7.764;2023-02-12T15:03:37;25.50;;;16.67;;
7432;SDS011;32233;49.500;7.764;2023-02-12T15:06:10;26.00;;;16.47;;
7432;SDS011;32233;49.500;7.764;2023-02-12T15:08:57;25.80;;;16.60;;
7432;SDS011;32233;49.500;7.764;2023-02-12T15:16:58;26.67;;;17.87;;
7432;SDS011;32233;49.500;7.764;2023-02-12T15:22:32;29.10;;;18.43;;
7432;SDS011;32233;49.500;7.764;2023-02-12T15:25:15;27.90;;;17.20;;
7432;SDS011;32233;49.500;7.764;2023-02-12T15:27:52;29.50;;;17.63;;
7432;SDS011;32233;49.500;7.764;2023-02-12T15:30:28;28.30;;;17.03;;
7432;SDS011;32233;49.500;7.764;2023-02-12T15:32:58;29.97;;;18.27;;
7432;SDS011;32233;49.500;7.764;2023-02-12T15:35:29;32.20;;;19.10;;
7432;SDS011;32233;49.500;7.764;2023-02-12T15:37:58;28.70;;;18.10;;
7432;SDS011;32233;49.500;7.764;2023-02-12T15:40:27;28.53;;;18.23;;
7432;SDS011;32233;49.500;7.764;2023-02-12T15:45:25;32.30;;;18.70;;
7432;SDS011;32233;49.500;7.764;2023-02-12T15:47:55;31.63;;;19.97;;
7432;SDS011;32233;49.500;7.764;2023-02-12T15:50:59;29.70;;;18.43;;
7432;SDS011;32233;49.500;7.764;2023-02-12T15:53:35;30.17;;;18.60;;
7432;SDS011;32233;49.500;7.764;2023-02-12T15:56:04;30.63;;;18.53;;
7432;SDS011;32233;49.500;7.764;2023-02-12T15:58:41;29.03;;;17.77;;
7432;SDS011;32233;49.500;7.764;2023-02-12T16:01:23;32.50;;;17.77;;
7432;SDS011;32233;49.500;7.764;2023-02-12T16:03:52;30.87;;;18.70;;
7432;SDS011;32233;49.500;7.764;2023-02-12T16:06:21;29.90;;;18.33;;
7432;SDS011;32233;49.500;7.764;2023-02-12T16:09:06;33.23;;;19.40;;
7432;SDS011;32233;49.500;7.764;2023-02-12T16:11:44;29.30;;;18.07;;
7432;SDS011;32233;49.500;7.764;2023-02-12T16:14:17;31.30;;;18.47;;
7432;SDS011;32233;49.500;7.764;2023-02-12T16:16:49;30.77;;;19.43;;
7432;SDS011;32233;49.500;7.764;2023-02-12T16:21:47;32.13;;;19.70;;
7432;SDS011;32233;49.500;7.764;2023-02-12T16:24:21;32.97;;;19.57;;
7432;SDS011;32233;49.500;7.764;2023-02-12T16:26:56;29.00;;;17.77;;
7432;SDS011;32233;49.500;7.764;2023-02-12T16:29:35;32.67;;;19.37;;
7432;SDS011;32233;49.500;7.764;2023-02-12T16:32:24;31.87;;;18.67;;
7432;SDS011;32233;49.500;7.764;2023-02-12T16:53:30;33.70;;;19.47;;
7432;SDS011;32233;49.500;7.764;2023-02-12T16:56:02;34.13;;;20.87;;
7432;SDS011;32233;49.500;7.764;2023-02-12T16:58:29;34.07;;;20.17;;
7432;SDS011;32233;49.500;7.764;2023-02-12T17:00:56;35.57;;;20.37;;
7432;SDS011;32233;49.500;7.764;2023-02-12T17:03:26;33.07;;;21.00;;
7432;SDS011;32233;49.500;7.764;2023-02-12T17:05:59;33.40;;;20.87;;
7432;SDS011;32233;49.500;7.764;2023-02-12T17:08:26;32.83;;;21.13;;
7432;SDS011;32233;49.500;7.764;2023-02-12T17:10:52;35.50;;;21.87;;
7432;SDS011;32233;49.500;7.764;2023-02-12T17:13:19;37.23;;;22.90;;
7432;SDS011;32233;49.500;7.764;2023-02-12T17:15:53;37.80;;;23.87;;
7432;SDS011;32233;49.500;7.764;2023-02-12T17:18:22;36.03;;;22.33;;
7432;SDS011;32233;49.500;7.764;2023-02-12T17:20:52;38.40;;;23.33;;
7432;SDS011;32233;49.500;7.764;2023-02-12T17:23:21;38.33;;;23.87;;
7432;SDS011;32233;49.500;7.764;2023-02-12T17:25:48;39.60;;;24.30;;
7432;SDS011;32233;49.500;7.764;2023-02-12T17:28:15;38.23;;;24.60;;
7432;SDS011;32233;49.500;7.764;2023-02-12T17:30:42;38.77;;;23.77;;
7432;SDS011;32233;49.500;7.764;2023-02-12T17:33:10;38.63;;;23.67;;
7432;SDS011;32233;49.500;7.764;2023-02-12T17:35:37;34.67;;;22.60;;
7432;SDS011;32233;49.500;7.764;2023-02-12T17:38:04;35.50;;;22.10;;
7432;SDS011;32233;49.500;7.764;2023-02-12T17:40:33;33.00;;;22.50;;
7432;SDS011;32233;49.500;7.764;2023-02-12T17:43:02;36.47;;;22.13;;
7432;SDS011;32233;49.500;7.764;2023-02-12T17:45:32;33.57;;;21.70;;
7432;SDS011;32233;49.500;7.764;2023-02-12T17:47:59;38.90;;;23.23;;
7432;SDS011;32233;49.500;7.764;2023-02-12T17:50:26;40.67;;;22.60;;
7432;SDS011;32233;49.500;7.764;2023-02-12T17:52:52;39.70;;;23.03;;
7432;SDS011;32233;49.500;7.764;2023-02-12T17:55:19;42.53;;;23.53;;
7432;SDS011;32233;49.500;7.764;2023-02-12T17:57:49;48.27;;;28.83;;
7432;SDS011;32233;49.500;7.764;2023-02-12T18:00:17;49.73;;;29.80;;
7432;SDS011;32233;49.500;7.764;2023-02-12T18:02:44;54.07;;;33.63;;
7432;SDS011;32233;49.500;7.764;2023-02-12T18:05:11;49.73;;;30.60;;
7432;SDS011;32233;49.500;7.764;2023-02-12T18:07:38;39.93;;;25.20;;